createdAt,value
2022-09-05T00:01:39.947Z,6.95
2022-09-05T00:04:31.300Z,7.30
2022-09-05T00:07:58.162Z,6.35
2022-09-05T00:10:36.174Z,6.75
2022-09-05T00:13:09.890Z,6.90
2022-09-05T00:16:08.612Z,6.78
2022-09-05T00:22:54.233Z,6.50
2022-09-05T00:24:35.364Z,6.65
2022-09-05T00:24:54.733Z,7.20
2022-09-05T00:27:37.267Z,7.47
2022-09-05T00:31:07.466Z,7.18
2022-09-05T00:33:56.794Z,6.68
2022-09-05T00:36:54.706Z,7.72
2022-09-05T00:39:34.448Z,6.85
2022-09-05T00:42:07.837Z,7.45
2022-09-05T00:44:38.319Z,6.90
2022-09-05T00:47:35.933Z,7.25
2022-09-05T00:50:11.157Z,7.32
2022-09-05T00:53:06.694Z,7.15
2022-09-05T00:55:46.595Z,6.50
2022-09-05T00:58:42.430Z,7.32
2022-09-05T01:01:37.383Z,7.25
2022-09-05T01:04:47.237Z,6.85
2022-09-05T01:07:38.014Z,7.13
2022-09-05T01:10:26.303Z,7.18
2022-09-05T01:13:21.505Z,7.05
2022-09-05T01:16:16.018Z,6.85
2022-09-05T01:18:59.194Z,7.18
2022-09-05T01:21:39.026Z,6.65
2022-09-05T01:24:27.977Z,7.60
2022-09-05T01:27:26.631Z,6.95
2022-09-05T01:30:23.061Z,7.03
2022-09-05T01:33:23.037Z,7.30
2022-09-05T01:36:07.691Z,7.10
2022-09-05T01:40:10.396Z,6.80
2022-09-05T01:42:08.262Z,6.53
2022-09-05T01:45:03.380Z,9.15
2022-09-05T01:48:01.330Z,7.32
2022-09-05T01:50:56.340Z,7.25
2022-09-05T01:53:35.335Z,7.60
2022-09-05T01:56:17.103Z,6.72
2022-09-05T01:59:10.990Z,7.35
2022-09-05T02:02:13.128Z,8.00
2022-09-05T02:04:43.628Z,7.90
2022-09-05T02:07:48.848Z,6.72
2022-09-05T02:10:37.577Z,7.32
2022-09-05T02:13:35.131Z,7.60
2022-09-05T02:16:19.962Z,7.63
2022-09-05T02:19:12.057Z,7.20
2022-09-05T02:21:56.019Z,7.10
2022-09-05T02:24:35.347Z,7.47
2022-09-05T02:27:40.241Z,7.05
2022-09-05T02:30:18.542Z,7.57
2022-09-05T02:32:55.428Z,6.65
2022-09-05T02:35:29.897Z,6.90
2022-09-05T02:42:49.856Z,7.88
2022-09-05T02:45:07.951Z,7.32
2022-09-05T02:45:10.845Z,8.07
2022-09-05T02:47:12.847Z,6.90
2022-09-05T02:52:27.593Z,7.75
2022-09-05T02:57:26.037Z,7.88
2022-09-05T02:57:33.494Z,7.40
2022-09-05T02:59:36.857Z,7.82
2022-09-05T03:02:26.065Z,7.57
2022-09-05T03:05:04.554Z,7.40
2022-09-05T03:08:13.231Z,7.32
2022-09-05T03:11:38.795Z,7.97
2022-09-05T03:14:23.170Z,7.10
2022-09-05T03:17:04.864Z,8.05
2022-09-05T03:19:46.249Z,8.20
2022-09-05T03:22:37.138Z,7.75
2022-09-05T03:25:40.884Z,7.53
2022-09-05T03:28:41.317Z,7.20
2022-09-05T03:31:14.848Z,7.22
2022-09-05T03:33:55.043Z,7.75
2022-09-05T03:36:40.461Z,7.18
2022-09-05T03:39:25.467Z,6.93
2022-09-05T03:42:15.914Z,7.10
2022-09-05T03:44:48.521Z,7.65
2022-09-05T03:47:42.883Z,7.05
2022-09-05T03:57:01.777Z,6.93
2022-09-05T03:57:06.386Z,7.53
2022-09-05T03:57:15.137Z,7.43
2022-09-05T03:59:43.499Z,7.10
2022-09-05T04:03:47.159Z,7.22
2022-09-05T04:08:25.939Z,6.85
2022-09-05T04:08:50.369Z,6.80
2022-09-05T04:11:21.034Z,7.00
2022-09-05T04:14:05.590Z,7.13
2022-09-05T04:16:54.013Z,7.60
2022-09-05T04:20:00.756Z,7.60
2022-09-05T04:22:48.489Z,6.78
2022-09-05T04:26:10.985Z,7.35
2022-09-05T04:29:14.959Z,6.82
2022-09-05T04:31:45.633Z,6.28
2022-09-05T04:34:52.288Z,7.45
2022-09-05T04:37:48.226Z,7.85
2022-09-05T04:40:42.135Z,7.40
2022-09-05T04:43:20.226Z,7.50
2022-09-05T04:45:53.553Z,8.75
2022-09-05T04:48:27.817Z,8.30
2022-09-05T04:51:11.585Z,7.32
2022-09-05T04:54:01.060Z,7.65
2022-09-05T04:56:32.572Z,7.78
2022-09-05T05:01:31.135Z,7.50
2022-09-05T05:06:00.708Z,7.40
2022-09-05T05:06:16.666Z,8.43
2022-09-05T05:08:01.857Z,9.13
2022-09-05T05:13:59.672Z,8.05
2022-09-05T05:17:56.692Z,7.50
2022-09-05T05:18:12.193Z,7.53
2022-09-05T05:20:39.689Z,7.80
2022-09-05T05:22:51.525Z,7.63
2022-09-05T05:25:18.395Z,7.97
2022-09-05T05:27:54.402Z,7.55
2022-09-05T05:30:32.266Z,8.05
2022-09-05T05:33:02.853Z,7.40
2022-09-05T05:35:33.665Z,7.50
2022-09-05T05:38:17.562Z,7.22
2022-09-05T05:40:51.478Z,7.32
2022-09-05T05:43:28.118Z,7.32
2022-09-05T05:45:58.963Z,6.50
2022-09-05T05:48:40.933Z,7.53
2022-09-05T05:51:38.329Z,6.82
2022-09-05T05:54:26.409Z,7.40
2022-09-05T05:57:17.520Z,7.38
2022-09-05T06:00:03.051Z,6.65
2022-09-05T06:03:25.691Z,6.97
2022-09-05T06:06:07.789Z,7.15
2022-09-05T06:12:06.935Z,6.90
2022-09-05T06:15:05.738Z,7.00
2022-09-05T06:15:38.894Z,7.10
2022-09-05T06:18:30.427Z,7.05
2022-09-05T06:22:06.199Z,7.07
2022-09-05T06:24:34.910Z,6.93
2022-09-05T06:27:32.559Z,6.60
2022-09-05T06:30:19.022Z,6.28
2022-09-05T06:32:58.701Z,6.80
2022-09-05T06:35:28.889Z,7.10
2022-09-05T06:38:20.186Z,7.00
2022-09-05T06:41:25.292Z,6.80
2022-09-05T06:44:15.131Z,6.60
2022-09-05T06:47:05.779Z,6.40
2022-09-05T06:49:46.017Z,6.20
2022-09-05T06:52:38.223Z,5.53
2022-09-05T06:55:13.953Z,5.95
2022-09-05T06:58:00.815Z,5.50
2022-09-05T07:00:38.897Z,4.60
2022-09-05T07:03:22.778Z,4.40
2022-09-05T07:06:19.690Z,4.20
2022-09-05T07:09:15.909Z,4.33
2022-09-05T07:12:23.605Z,4.17
2022-09-05T07:15:08.607Z,4.23
2022-09-05T07:18:10.923Z,3.60
2022-09-05T07:21:16.458Z,3.20
2022-09-05T07:24:08.978Z,3.10
2022-09-05T07:26:51.774Z,2.60
2022-09-05T07:29:33.109Z,3.50
2022-09-05T07:32:02.586Z,3.50
2022-09-05T07:34:34.231Z,3.07
2022-09-05T07:37:19.108Z,3.00
2022-09-05T07:40:11.309Z,2.97
2022-09-05T07:43:10.164Z,3.10
2022-09-05T07:46:01.146Z,3.37
2022-09-05T07:48:34.948Z,2.80
2022-09-05T07:56:46.499Z,2.97
2022-09-05T07:57:06.275Z,2.87
2022-09-05T08:00:06.441Z,3.30
2022-09-05T08:02:33.431Z,2.70
2022-09-05T08:05:06.817Z,2.77
2022-09-05T08:07:47.925Z,2.40
2022-09-05T08:10:35.623Z,2.50
2022-09-05T08:13:27.480Z,2.73
2022-09-05T08:16:13.111Z,2.57
2022-09-05T08:18:46.023Z,2.67
2022-09-05T08:21:41.901Z,2.27
2022-09-05T08:24:13.165Z,2.57
2022-09-05T08:26:47.446Z,2.40
2022-09-05T08:29:30.995Z,2.50
2022-09-05T08:32:00.717Z,2.23
2022-09-05T08:34:44.959Z,2.50
2022-09-05T08:37:21.023Z,2.20
2022-09-05T08:40:09.650Z,2.57
2022-09-05T08:43:55.995Z,2.10
2022-09-05T08:46:39.568Z,2.30
2022-09-05T08:49:11.262Z,2.10
2022-09-05T08:51:53.851Z,2.30
2022-09-05T08:54:34.838Z,2.47
2022-09-05T08:57:12.131Z,2.73
2022-09-05T09:00:19.249Z,2.57
2022-09-05T09:02:54.998Z,2.13
2022-09-05T09:06:13.523Z,2.07
2022-09-05T09:09:09.255Z,2.40
2022-09-05T09:11:45.029Z,2.50
2022-09-05T09:14:32.616Z,2.40
2022-09-05T09:17:26.674Z,2.73
2022-09-05T09:20:33.422Z,2.50
2022-09-05T09:23:08.927Z,2.70
2022-09-05T09:26:15.840Z,2.50
2022-09-05T09:28:49.856Z,2.80
2022-09-05T09:31:42.896Z,2.80
2022-09-05T09:34:49.394Z,2.90
2022-09-05T09:37:50.576Z,2.87
2022-09-05T09:40:52.295Z,2.80
2022-09-05T09:43:57.459Z,3.10
2022-09-05T09:46:27.383Z,2.80
2022-09-05T09:49:25.994Z,3.00
2022-09-05T09:52:02.329Z,2.93
2022-09-05T09:54:53.802Z,2.90
2022-09-05T09:57:44.919Z,2.70
2022-09-05T10:00:23.915Z,3.00
2022-09-05T10:07:26.923Z,2.90
2022-09-05T10:10:34.810Z,3.00
2022-09-05T10:10:49.593Z,2.77
2022-09-05T10:12:38.775Z,3.10
2022-09-05T10:15:31.673Z,2.53
2022-09-05T10:18:24.485Z,2.83
2022-09-05T10:21:25.620Z,2.73
2022-09-05T10:24:13.962Z,2.30
2022-09-05T10:27:06.069Z,2.67
2022-09-05T10:29:43.717Z,2.40
2022-09-05T10:35:07.967Z,2.80
2022-09-05T10:35:28.970Z,2.70
2022-09-05T10:38:12.325Z,2.60
2022-09-05T10:40:46.350Z,2.40
2022-09-05T10:43:32.344Z,2.70
2022-09-05T10:46:06.466Z,2.47
2022-09-05T10:49:03.282Z,2.43
2022-09-05T10:51:38.702Z,2.50
2022-09-05T10:54:31.242Z,2.37
2022-09-05T10:57:31.846Z,2.43
2022-09-05T11:02:24.316Z,2.40
2022-09-05T11:03:00.925Z,2.43
2022-09-05T11:05:38.556Z,2.40
2022-09-05T11:08:11.057Z,2.73
2022-09-05T11:10:57.933Z,2.23
2022-09-05T11:13:49.902Z,2.43
2022-09-05T11:16:25.855Z,2.83
2022-09-05T11:19:00.098Z,2.57
2022-09-05T11:21:38.435Z,2.67
2022-09-05T11:24:46.807Z,2.73
2022-09-05T11:27:46.794Z,2.50
2022-09-05T11:30:30.493Z,2.57
2022-09-05T11:39:47.755Z,3.20
2022-09-05T11:39:48.261Z,2.70
2022-09-05T11:40:06.455Z,2.60
2022-09-05T11:42:17.831Z,2.50
2022-09-05T11:45:10.112Z,2.43
2022-09-05T11:48:03.090Z,2.70
2022-09-05T11:50:57.301Z,2.40
2022-09-05T11:53:50.819Z,2.40
2022-09-05T11:56:44.065Z,2.40
2022-09-05T11:59:45.020Z,2.40
2022-09-05T12:02:37.639Z,2.50
2022-09-05T12:05:48.478Z,2.60
2022-09-05T12:08:29.938Z,2.30
2022-09-05T12:11:10.587Z,2.60
2022-09-05T12:13:47.019Z,2.40
2022-09-05T12:16:31.446Z,2.40
2022-09-05T12:19:29.836Z,2.47
2022-09-05T12:22:16.500Z,2.93
2022-09-05T12:25:25.711Z,2.30
2022-09-05T12:27:47.418Z,2.20
2022-09-05T12:30:36.416Z,2.70
2022-09-05T12:36:09.703Z,2.53
2022-09-05T12:40:46.172Z,2.60
2022-09-05T12:40:58.484Z,2.40
2022-09-05T12:42:56.051Z,2.40
2022-09-05T12:45:34.471Z,3.13
2022-09-05T12:48:39.110Z,2.40
2022-09-05T12:51:45.303Z,2.40
2022-09-05T12:54:24.823Z,2.90
2022-09-05T12:59:52.517Z,2.50
2022-09-05T13:02:57.343Z,2.40
2022-09-05T13:03:27.858Z,2.60
2022-09-05T13:06:25.127Z,2.50
2022-09-05T13:08:59.928Z,2.70
2022-09-05T13:14:47.605Z,2.40
2022-09-05T13:14:52.746Z,2.50
2022-09-05T13:17:14.189Z,2.57
2022-09-05T13:19:51.249Z,2.47
2022-09-05T13:22:23.453Z,2.53
2022-09-05T13:25:07.471Z,2.50
2022-09-05T13:27:42.295Z,2.50
2022-09-05T13:32:58.836Z,2.33
2022-09-05T13:38:03.626Z,2.60
2022-09-05T13:38:19.071Z,2.60
2022-09-05T13:39:07.755Z,2.50
2022-09-05T13:41:48.740Z,2.70
2022-09-05T13:44:27.571Z,2.50
2022-09-05T13:47:28.777Z,2.40
2022-09-05T13:50:05.665Z,2.47
2022-09-05T13:52:34.522Z,2.40
2022-09-05T13:55:16.197Z,2.47
2022-09-05T13:57:48.045Z,2.50
2022-09-05T14:00:42.219Z,3.00
2022-09-05T14:03:38.987Z,2.73
2022-09-05T14:06:46.670Z,2.70
2022-09-05T14:09:39.775Z,2.73
2022-09-05T14:12:15.192Z,2.43
2022-09-05T14:15:14.638Z,2.90
2022-09-05T14:17:59.626Z,2.93
2022-09-05T14:20:50.204Z,2.77
2022-09-05T14:23:18.693Z,2.60
2022-09-05T14:25:53.359Z,3.10
2022-09-05T14:28:30.976Z,3.37
2022-09-05T14:36:14.989Z,2.80
2022-09-05T14:38:00.571Z,3.07
2022-09-05T14:38:09.314Z,2.67
2022-09-05T14:41:11.516Z,2.60
2022-09-05T14:44:05.584Z,2.63
2022-09-05T14:46:50.734Z,2.83
2022-09-05T14:49:54.378Z,2.97
2022-09-05T14:52:26.743Z,2.80
2022-09-05T15:02:55.114Z,3.00
2022-09-05T15:02:58.133Z,3.23
2022-09-05T15:06:37.651Z,2.80
2022-09-05T15:12:14.943Z,2.60
2022-09-05T15:12:27.749Z,2.73
2022-09-05T15:15:00.486Z,2.80
2022-09-05T15:17:28.272Z,3.23
2022-09-05T15:20:06.399Z,2.60
2022-09-05T15:22:37.092Z,2.87
2022-09-05T15:25:20.131Z,3.10
2022-09-05T15:27:49.528Z,3.13
2022-09-05T15:30:35.398Z,3.10
2022-09-05T15:33:25.320Z,2.80
2022-09-05T15:35:52.223Z,2.90
2022-09-05T15:38:55.475Z,2.90
2022-09-05T15:41:26.871Z,3.20
2022-09-05T15:43:59.657Z,3.63
2022-09-05T15:46:39.242Z,2.97
2022-09-05T15:49:22.195Z,3.40
2022-09-05T15:51:56.896Z,2.80
2022-09-05T15:54:37.902Z,3.07
2022-09-05T15:57:09.046Z,3.00
2022-09-05T15:59:49.639Z,3.17
2022-09-05T16:02:23.310Z,2.97
2022-09-05T16:10:26.829Z,2.87
2022-09-05T16:10:48.603Z,2.80
2022-09-05T16:11:06.781Z,2.90
2022-09-05T16:13:51.921Z,3.20
2022-09-05T16:20:15.044Z,2.87
2022-09-05T16:23:13.956Z,3.00
2022-09-05T16:23:32.505Z,2.93
2022-09-05T16:25:00.228Z,2.90
2022-09-05T16:28:11.747Z,2.83
2022-09-05T16:30:39.832Z,3.13
2022-09-05T16:33:12.579Z,3.00
2022-09-05T16:35:47.783Z,3.10
2022-09-05T16:38:49.578Z,2.93
2022-09-05T16:41:27.546Z,3.20
2022-09-05T16:44:04.155Z,2.93
2022-09-05T16:47:00.766Z,2.93
2022-09-05T16:49:42.359Z,3.00
2022-09-05T16:52:17.275Z,3.10
2022-09-05T16:55:08.501Z,3.07
2022-09-05T16:57:37.730Z,3.27
2022-09-05T17:00:07.909Z,3.30
2022-09-05T17:03:11.528Z,3.33
2022-09-05T17:05:46.161Z,3.20
2022-09-05T17:08:16.715Z,3.77
2022-09-05T17:10:50.692Z,3.80
2022-09-05T17:13:42.358Z,3.63
2022-09-05T17:16:14.005Z,4.30
2022-09-05T17:18:42.312Z,3.90
2022-09-05T17:21:12.797Z,4.60
2022-09-05T17:29:18.154Z,3.43
2022-09-05T17:29:32.182Z,4.00
2022-09-05T17:32:40.102Z,4.00
2022-09-05T17:35:17.483Z,3.80
2022-09-05T17:38:11.216Z,4.07
2022-09-05T17:41:12.540Z,4.07
2022-09-05T17:43:40.823Z,4.10
2022-09-05T17:46:26.285Z,4.23
2022-09-05T17:49:18.648Z,4.20
2022-09-05T17:51:50.855Z,4.27
2022-09-05T17:54:37.642Z,4.10
2022-09-05T17:57:28.965Z,3.90
2022-09-05T18:00:00.155Z,4.17
2022-09-05T18:02:32.634Z,3.77
2022-09-05T18:05:01.248Z,3.80
2022-09-05T18:07:29.262Z,4.77
2022-09-05T18:10:12.081Z,4.10
2022-09-05T18:13:13.742Z,4.63
2022-09-05T18:15:32.490Z,3.97
2022-09-05T18:18:05.807Z,4.00
2022-09-05T18:21:12.206Z,3.80
2022-09-05T18:23:57.794Z,4.43
2022-09-05T18:26:26.510Z,4.10
2022-09-05T18:29:57.316Z,4.17
2022-09-05T18:32:11.894Z,4.17
2022-09-05T18:34:40.449Z,4.27
2022-09-05T18:37:35.525Z,4.00
2022-09-05T18:40:16.654Z,3.90
2022-09-05T18:43:10.464Z,4.00
2022-09-05T18:45:52.538Z,4.10
2022-09-05T18:48:43.166Z,4.20
2022-09-05T18:51:17.093Z,4.17
2022-09-05T18:53:47.414Z,4.30
2022-09-05T18:56:27.444Z,4.67
2022-09-05T18:59:11.546Z,4.00
2022-09-05T19:01:45.305Z,4.07
2022-09-05T19:04:38.932Z,4.40
2022-09-05T19:07:11.734Z,4.30
2022-09-05T19:09:56.720Z,4.90
2022-09-05T19:12:32.146Z,5.30
2022-09-05T19:15:26.050Z,4.60
2022-09-05T19:18:26.468Z,4.80
2022-09-05T19:21:12.021Z,4.67
2022-09-05T19:23:50.810Z,4.40
2022-09-05T19:26:18.334Z,4.17
2022-09-05T19:36:48.647Z,4.83
2022-09-05T19:36:56.963Z,4.83
2022-09-05T19:37:22.691Z,4.37
2022-09-05T19:37:25.452Z,4.57
2022-09-05T19:45:54.318Z,4.53
2022-09-05T19:47:37.065Z,4.50
2022-09-05T19:47:37.945Z,4.50
2022-09-05T19:48:25.745Z,4.70
2022-09-05T19:50:57.635Z,4.70
2022-09-05T19:53:24.951Z,4.73
2022-09-05T19:55:53.626Z,4.73
2022-09-05T19:58:22.951Z,4.90
2022-09-05T20:01:02.713Z,5.13
2022-09-05T20:03:38.871Z,5.23
2022-09-05T20:06:28.924Z,4.93
2022-09-05T20:09:09.213Z,5.07
2022-09-05T20:11:45.223Z,5.23
2022-09-05T20:14:20.637Z,5.00
2022-09-05T20:16:49.691Z,5.10
2022-09-05T20:19:34.510Z,5.67
2022-09-05T20:22:46.754Z,4.93
2022-09-05T20:25:04.042Z,5.10
2022-09-05T20:27:30.864Z,4.60
2022-09-05T20:30:04.735Z,5.07
2022-09-05T20:32:41.055Z,5.17
2022-09-05T20:40:22.646Z,4.90
2022-09-05T20:43:18.672Z,6.03
2022-09-05T20:43:18.922Z,5.20
2022-09-05T20:44:17.205Z,4.87
2022-09-05T20:50:44.427Z,5.20
2022-09-05T20:54:16.971Z,5.90
2022-09-05T20:54:19.756Z,5.27
2022-09-05T20:55:41.514Z,5.00
2022-09-05T20:58:11.842Z,4.73
2022-09-05T21:01:21.555Z,5.03
2022-09-05T21:03:36.470Z,4.90
2022-09-05T21:06:22.510Z,5.43
2022-09-05T21:08:51.211Z,4.97
2022-09-05T21:11:28.114Z,5.90
2022-09-05T21:13:59.276Z,5.47
2022-09-05T21:16:45.114Z,5.23
2022-09-05T21:19:33.272Z,5.00
2022-09-05T21:22:16.524Z,5.00
2022-09-05T21:24:44.162Z,5.60
2022-09-05T21:27:22.917Z,5.30
2022-09-05T21:29:57.329Z,5.10
2022-09-05T21:32:27.956Z,5.20
2022-09-05T21:35:33.771Z,4.63
2022-09-05T21:37:53.550Z,5.17
2022-09-05T21:40:21.282Z,5.70
2022-09-05T21:43:40.887Z,5.30
2022-09-05T21:47:47.284Z,5.27
2022-09-05T21:48:24.315Z,5.65
2022-09-05T21:50:52.426Z,6.20
2022-09-05T21:57:16.863Z,5.23
2022-09-05T21:59:26.231Z,5.47
2022-09-05T21:59:28.370Z,5.30
2022-09-05T22:01:54.633Z,5.57
2022-09-05T22:04:21.996Z,5.40
2022-09-05T22:06:49.611Z,5.30
2022-09-05T22:09:23.567Z,5.10
2022-09-05T22:11:51.217Z,5.60
2022-09-05T22:14:19.841Z,5.90
2022-09-05T22:16:50.078Z,5.60
2022-09-05T22:19:22.933Z,5.60
2022-09-05T22:21:53.196Z,5.78
2022-09-05T22:24:21.202Z,6.05
2022-09-05T22:27:12.335Z,5.60
2022-09-05T22:29:40.082Z,6.00
2022-09-05T22:32:07.366Z,6.00
2022-09-05T22:34:34.179Z,5.20
2022-09-05T22:37:00.835Z,5.70
2022-09-05T22:39:36.989Z,5.72
2022-09-05T22:42:10.279Z,5.80
2022-09-05T22:44:39.110Z,6.22
2022-09-05T22:47:10.091Z,5.60
2022-09-05T22:49:37.377Z,6.43
2022-09-05T22:52:05.811Z,5.55
2022-09-05T22:54:33.068Z,5.35
2022-09-05T22:56:59.744Z,5.60
2022-09-05T22:59:26.475Z,5.85
2022-09-05T23:01:53.174Z,5.32
2022-09-05T23:04:19.985Z,6.33
2022-09-05T23:06:46.707Z,5.70
2022-09-05T23:09:13.388Z,6.32
2022-09-05T23:11:41.071Z,6.05
2022-09-05T23:14:07.754Z,5.75
2022-09-05T23:16:34.659Z,5.85
2022-09-05T23:19:01.476Z,5.97
2022-09-05T23:21:28.178Z,5.22
2022-09-05T23:23:54.859Z,5.47
2022-09-05T23:26:22.306Z,5.97
2022-09-05T23:28:49.059Z,5.47
2022-09-05T23:31:16.028Z,6.05
2022-09-05T23:33:43.047Z,5.63
2022-09-05T23:36:13.490Z,6.10
2022-09-05T23:38:42.425Z,5.95
2022-09-05T23:41:11.931Z,6.00
2022-09-05T23:43:38.606Z,6.20
2022-09-05T23:46:05.517Z,5.85
2022-09-05T23:48:32.329Z,6.15
2022-09-05T23:51:05.865Z,6.03
2022-09-05T23:53:32.646Z,5.57
2022-09-05T23:56:00.861Z,6.10
2022-09-05T23:58:29.085Z,6.70
